createdAt,value
2023-02-07T00:00:21.714Z,4.45
2023-02-07T00:02:49.409Z,4.65
2023-02-07T00:05:16.790Z,5.10
2023-02-07T00:07:43.532Z,4.78
2023-02-07T00:10:10.738Z,6.18
2023-02-07T00:12:38.150Z,5.00
2023-02-07T00:15:06.128Z,4.47
2023-02-07T00:17:33.338Z,5.05
2023-02-07T00:20:00.146Z,5.20
2023-02-07T00:22:26.873Z,4.68
2023-02-07T00:24:53.584Z,5.07
2023-02-07T00:27:20.334Z,5.82
2023-02-07T00:29:47.043Z,6.38
2023-02-07T00:32:14.032Z,5.97
2023-02-07T00:34:42.017Z,6.20
2023-02-07T00:37:09.801Z,5.53
2023-02-07T00:39:38.308Z,5.13
2023-02-07T00:42:05.610Z,5.68
2023-02-07T00:44:32.970Z,5.55
2023-02-07T00:47:00.060Z,5.00
2023-02-07T00:49:27.094Z,5.60
2023-02-07T00:51:53.804Z,4.88
2023-02-07T00:54:20.588Z,6.22
2023-02-07T00:56:47.265Z,5.22
2023-02-07T00:59:14.100Z,5.40
2023-02-07T01:01:41.005Z,4.95
2023-02-07T01:04:07.694Z,5.18
2023-02-07T01:06:36.937Z,5.50
2023-02-07T01:09:06.004Z,5.28
2023-02-07T01:11:33.032Z,6.22
2023-02-07T01:14:01.619Z,4.93
2023-02-07T01:16:34.240Z,5.90
2023-02-07T01:19:06.948Z,5.57
2023-02-07T01:21:33.738Z,5.57
2023-02-07T01:24:00.431Z,4.80
2023-02-07T01:26:27.667Z,5.38
2023-02-07T01:28:55.611Z,4.95
2023-02-07T01:31:23.530Z,6.13
2023-02-07T01:33:55.936Z,6.63
2023-02-07T01:36:23.211Z,5.65
2023-02-07T01:38:52.747Z,5.80
2023-02-07T01:41:20.517Z,5.60
2023-02-07T01:44:06.683Z,5.35
2023-02-07T01:46:35.556Z,6.18
2023-02-07T01:49:08.325Z,6.20
2023-02-07T01:51:35.871Z,5.53
2023-02-07T01:54:06.270Z,5.15
2023-02-07T01:56:35.059Z,6.57
2023-02-07T01:59:05.678Z,7.35
2023-02-07T02:01:33.151Z,5.97
2023-02-07T02:03:59.970Z,4.93
2023-02-07T02:06:30.215Z,5.65
2023-02-07T02:08:59.782Z,5.28
2023-02-07T02:12:03.725Z,4.78
2023-02-07T02:14:57.375Z,4.80
2023-02-07T02:18:01.930Z,5.88
2023-02-07T02:20:36.901Z,5.43
2023-02-07T02:23:07.610Z,5.85
2023-02-07T02:26:01.608Z,5.50
2023-02-07T02:28:55.562Z,5.15
2023-02-07T02:31:48.898Z,5.80
2023-02-07T02:34:21.575Z,6.00
2023-02-07T02:36:48.211Z,6.00
2023-02-07T02:39:30.116Z,5.50
2023-02-07T02:42:07.963Z,5.60
2023-02-07T02:44:50.829Z,5.40
2023-02-07T02:47:20.172Z,5.07
2023-02-07T02:49:48.868Z,5.22
2023-02-07T02:52:16.137Z,6.32
2023-02-07T02:54:42.870Z,4.60
2023-02-07T02:57:45.313Z,5.18
2023-02-07T03:00:38.302Z,4.50
2023-02-07T03:03:32.192Z,5.80
2023-02-07T03:06:32.284Z,5.40
2023-02-07T03:09:16.152Z,5.90
2023-02-07T03:12:00.658Z,5.72
2023-02-07T03:14:39.430Z,4.97
2023-02-07T03:17:20.591Z,5.13
2023-02-07T03:20:10.395Z,5.80
2023-02-07T03:22:37.457Z,5.72
2023-02-07T03:25:05.933Z,5.25
2023-02-07T03:27:34.629Z,4.93
2023-02-07T03:30:06.887Z,6.10
2023-02-07T03:32:37.268Z,4.90
2023-02-07T03:35:25.710Z,6.45
2023-02-07T03:37:57.249Z,5.38
2023-02-07T03:40:28.371Z,4.57
2023-02-07T03:43:18.579Z,5.18
2023-02-07T03:45:45.244Z,5.65
2023-02-07T03:48:12.357Z,5.05
2023-02-07T03:50:39.096Z,4.82
2023-02-07T03:53:06.452Z,4.75
2023-02-07T03:55:33.669Z,5.60
2023-02-07T03:58:00.365Z,5.93
2023-02-07T04:00:27.478Z,5.00
2023-02-07T04:02:54.355Z,6.53
2023-02-07T04:05:21.049Z,5.20
2023-02-07T04:07:48.642Z,4.75
2023-02-07T04:10:15.361Z,5.15
2023-02-07T04:12:42.111Z,5.50
2023-02-07T04:15:09.713Z,4.97
2023-02-07T04:17:36.555Z,4.90
2023-02-07T04:20:05.321Z,5.43
2023-02-07T04:22:32.384Z,4.85
2023-02-07T04:24:59.107Z,5.88
2023-02-07T04:27:25.853Z,5.75
2023-02-07T04:29:52.580Z,4.85
2023-02-07T04:32:19.238Z,5.03
2023-02-07T04:34:45.922Z,5.03
2023-02-07T04:37:12.627Z,4.90
2023-02-07T04:39:39.327Z,5.07
2023-02-07T04:42:07.562Z,5.88
2023-02-07T04:44:34.633Z,4.82
2023-02-07T04:47:01.407Z,5.30
2023-02-07T04:49:28.071Z,4.80
2023-02-07T04:51:54.722Z,6.30
2023-02-07T04:54:21.579Z,4.85
2023-02-07T04:56:48.305Z,6.95
2023-02-07T04:59:15.061Z,4.82
2023-02-07T05:01:41.777Z,5.32
2023-02-07T05:04:08.685Z,4.95
2023-02-07T05:06:35.504Z,4.68
2023-02-07T05:09:02.237Z,5.60
2023-02-07T05:11:28.925Z,5.78
2023-02-07T05:13:55.630Z,4.88
2023-02-07T05:16:22.395Z,4.78
2023-02-07T05:18:49.089Z,4.53
2023-02-07T05:21:15.750Z,4.97
2023-02-07T05:23:42.422Z,6.80
2023-02-07T05:26:09.058Z,5.68
2023-02-07T05:28:35.713Z,5.68
2023-02-07T05:31:02.445Z,4.80
2023-02-07T05:33:29.142Z,8.05
2023-02-07T05:35:56.275Z,5.90
2023-02-07T05:38:22.961Z,7.28
2023-02-07T05:40:49.832Z,5.05
2023-02-07T05:43:16.669Z,5.72
2023-02-07T05:45:45.618Z,4.85
2023-02-07T05:48:13.420Z,5.13
2023-02-07T05:50:40.163Z,5.68
2023-02-07T05:53:10.261Z,5.72
2023-02-07T05:55:37.575Z,5.00
2023-02-07T05:58:05.213Z,6.00
2023-02-07T06:00:32.105Z,5.70
2023-02-07T06:02:58.916Z,5.97
2023-02-07T06:05:25.920Z,5.80
2023-02-07T06:07:52.667Z,5.60
2023-02-07T06:10:19.537Z,6.22
2023-02-07T06:12:46.367Z,5.32
2023-02-07T06:15:13.522Z,5.72
2023-02-07T06:17:40.187Z,5.00
2023-02-07T06:20:07.472Z,5.30
2023-02-07T06:22:34.150Z,5.47
2023-02-07T06:25:00.842Z,4.90
2023-02-07T06:27:27.512Z,5.50
2023-02-07T06:29:54.188Z,5.53
2023-02-07T06:32:20.896Z,5.60
2023-02-07T06:34:47.596Z,5.07
2023-02-07T06:37:14.303Z,6.05
2023-02-07T06:39:41.013Z,5.43
2023-02-07T06:42:07.759Z,6.13
2023-02-07T06:44:34.474Z,4.72
2023-02-07T06:47:01.257Z,8.57
2023-02-07T06:49:27.914Z,8.02
2023-02-07T06:51:54.782Z,7.03
2023-02-07T06:54:21.825Z,6.68
2023-02-07T06:56:48.512Z,8.63
2023-02-07T06:59:15.208Z,6.72
2023-02-07T07:01:42.119Z,6.00
2023-02-07T07:04:09.015Z,7.03
2023-02-07T07:06:36.023Z,7.32
2023-02-07T07:09:03.251Z,5.22
2023-02-07T07:11:30.056Z,5.78
2023-02-07T07:13:56.805Z,5.47
2023-02-07T07:16:23.512Z,6.25
2023-02-07T07:18:50.321Z,5.28
2023-02-07T07:21:17.129Z,6.68
2023-02-07T07:23:43.832Z,5.88
2023-02-07T07:26:10.524Z,6.90
2023-02-07T07:28:37.242Z,6.80
2023-02-07T07:31:06.617Z,7.30
2023-02-07T07:33:33.691Z,7.45
2023-02-07T07:36:01.970Z,12.52
2023-02-07T07:38:29.232Z,9.75
2023-02-07T07:40:55.978Z,7.97
2023-02-07T07:43:22.862Z,7.43
2023-02-07T07:45:57.772Z,7.72
2023-02-07T07:48:25.450Z,6.45
2023-02-07T07:50:53.069Z,17.02
2023-02-07T07:53:20.329Z,8.63
2023-02-07T07:55:55.099Z,8.10
2023-02-07T07:58:23.267Z,5.75
2023-02-07T08:00:50.144Z,4.88
2023-02-07T08:03:19.231Z,5.82
2023-02-07T08:05:46.978Z,4.35
2023-02-07T08:08:14.122Z,5.03
2023-02-07T08:10:41.784Z,4.63
2023-02-07T08:13:08.964Z,4.25
2023-02-07T08:15:36.019Z,4.50
2023-02-07T08:18:03.155Z,3.25
2023-02-07T08:20:29.826Z,3.92
2023-02-07T08:22:58.009Z,3.20
2023-02-07T08:25:25.234Z,4.30
2023-02-07T08:27:52.613Z,4.70
2023-02-07T08:30:19.484Z,3.80
2023-02-07T08:32:46.246Z,4.75
2023-02-07T08:35:13.023Z,2.75
2023-02-07T08:37:39.758Z,5.20
2023-02-07T08:40:07.137Z,3.95
2023-02-07T08:42:33.843Z,6.15
2023-02-07T08:45:00.671Z,4.03
2023-02-07T08:47:27.395Z,16.75
2023-02-07T08:49:54.086Z,15.10
2023-02-07T08:52:20.797Z,8.80
2023-02-07T08:54:48.683Z,4.30
2023-02-07T08:57:16.114Z,3.88
2023-02-07T08:59:42.968Z,4.07
2023-02-07T09:02:11.791Z,3.50
2023-02-07T09:04:38.752Z,4.07
2023-02-07T09:07:05.460Z,4.80
2023-02-07T09:09:32.986Z,4.28
2023-02-07T09:11:59.906Z,5.40
2023-02-07T09:14:26.657Z,4.07
2023-02-07T09:16:53.472Z,4.25
2023-02-07T09:19:20.376Z,3.85
2023-02-07T09:21:48.127Z,4.70
2023-02-07T09:24:15.058Z,4.93
2023-02-07T09:26:41.887Z,3.88
2023-02-07T09:29:12.807Z,3.92
2023-02-07T09:31:39.654Z,6.20
2023-02-07T09:34:07.458Z,5.57
2023-02-07T09:36:36.452Z,6.43
2023-02-07T09:39:03.847Z,7.32
2023-02-07T09:41:40.484Z,6.43
2023-02-07T09:44:07.439Z,6.65
2023-02-07T09:46:40.184Z,6.07
2023-02-07T09:49:31.888Z,7.57
2023-02-07T09:52:00.925Z,6.38
2023-02-07T09:54:45.100Z,6.85
2023-02-07T09:57:37.831Z,5.53
2023-02-07T10:00:18.446Z,6.25
2023-02-07T10:02:52.218Z,7.55
2023-02-07T10:05:26.039Z,7.45
2023-02-07T10:07:52.736Z,6.20
2023-02-07T10:10:51.061Z,6.22
2023-02-07T10:13:24.862Z,9.13
2023-02-07T10:16:11.942Z,5.50
2023-02-07T10:18:55.451Z,7.38
2023-02-07T10:21:41.209Z,5.95
2023-02-07T10:24:35.209Z,5.88
2023-02-07T10:27:13.875Z,8.38
2023-02-07T10:29:59.795Z,6.18
2023-02-07T10:32:28.573Z,6.03
2023-02-07T10:35:03.231Z,6.78
2023-02-07T10:37:38.421Z,6.80
2023-02-07T10:40:27.827Z,6.53
2023-02-07T10:43:03.286Z,6.20
2023-02-07T10:45:30.461Z,6.57
2023-02-07T10:47:58.202Z,7.53
2023-02-07T10:50:30.240Z,7.00
2023-02-07T10:52:59.201Z,7.18
2023-02-07T10:55:43.890Z,6.55
2023-02-07T10:58:23.925Z,5.65
2023-02-07T11:00:55.235Z,7.05
2023-02-07T11:03:24.440Z,5.55
2023-02-07T11:05:57.131Z,5.78
2023-02-07T11:08:28.265Z,6.95
2023-02-07T11:10:57.864Z,6.00
2023-02-07T11:13:30.467Z,6.70
2023-02-07T11:16:07.211Z,6.00
2023-02-07T11:18:43.509Z,5.93
2023-02-07T11:21:31.143Z,6.72
2023-02-07T11:24:21.995Z,7.00
2023-02-07T11:27:02.726Z,5.20
2023-02-07T11:29:31.745Z,4.88
2023-02-07T11:32:00.369Z,6.85
2023-02-07T11:34:31.601Z,7.15
2023-02-07T11:37:17.245Z,5.07
2023-02-07T11:39:44.767Z,5.35
2023-02-07T11:42:14.797Z,5.80
2023-02-07T11:44:43.373Z,6.88
2023-02-07T11:47:15.141Z,6.53
2023-02-07T11:49:45.317Z,6.45
2023-02-07T11:52:13.260Z,5.75
2023-02-07T11:54:42.824Z,5.32
2023-02-07T11:57:15.356Z,5.25
2023-02-07T12:00:17.041Z,5.63
2023-02-07T12:02:52.236Z,4.97
2023-02-07T12:05:24.350Z,5.70
2023-02-07T12:07:56.677Z,5.13
2023-02-07T12:10:32.644Z,6.15
2023-02-07T12:13:07.891Z,6.95
2023-02-07T12:15:52.578Z,4.20
2023-02-07T12:18:40.085Z,5.53
2023-02-07T12:21:35.703Z,6.95
2023-02-07T12:24:20.861Z,5.88
2023-02-07T12:27:04.937Z,4.20
2023-02-07T12:29:43.584Z,4.38
2023-02-07T12:32:37.456Z,4.63
2023-02-07T12:35:24.811Z,4.80
2023-02-07T12:38:01.706Z,8.00
2023-02-07T12:40:39.241Z,4.57
2023-02-07T12:43:33.928Z,3.97
2023-02-07T12:46:00.777Z,7.00
2023-02-07T12:49:32.039Z,4.63
2023-02-07T12:52:30.007Z,4.93
2023-02-07T12:55:12.533Z,4.35
2023-02-07T12:57:51.901Z,4.88
2023-02-07T13:00:28.737Z,4.55
2023-02-07T13:03:33.221Z,4.68
2023-02-07T13:06:20.970Z,4.43
2023-02-07T13:09:18.660Z,4.03
2023-02-07T13:12:08.926Z,4.10
2023-02-07T13:14:49.276Z,4.78
2023-02-07T13:17:48.467Z,3.25
2023-02-07T13:20:21.932Z,4.78
2023-02-07T13:22:56.751Z,4.30
2023-02-07T13:25:40.515Z,3.67
2023-02-07T13:28:18.165Z,4.47
2023-02-07T13:30:47.456Z,4.25
2023-02-07T13:33:36.936Z,3.65
2023-02-07T13:36:13.388Z,3.45
2023-02-07T13:39:05.953Z,3.92
2023-02-07T13:41:55.951Z,4.43
2023-02-07T13:44:26.597Z,4.75
2023-02-07T13:47:25.365Z,3.55
2023-02-07T13:50:01.845Z,3.92
2023-02-07T13:53:03.482Z,5.35
2023-02-07T13:55:39.476Z,5.40
2023-02-07T13:58:54.072Z,3.65
2023-02-07T14:01:29.410Z,4.25
2023-02-07T14:04:06.908Z,4.53
2023-02-07T14:06:53.235Z,4.63
2023-02-07T14:09:52.744Z,4.70
2023-02-07T14:12:26.597Z,4.57
2023-02-07T14:15:02.660Z,8.20
2023-02-07T14:17:30.068Z,4.40
2023-02-07T14:20:01.538Z,6.95
2023-02-07T14:22:31.184Z,4.45
2023-02-07T14:25:03.710Z,4.30
2023-02-07T14:27:34.766Z,5.57
2023-02-07T14:30:37.156Z,4.47
2023-02-07T14:33:21.308Z,4.13
2023-02-07T14:36:19.104Z,4.30
2023-02-07T14:39:07.099Z,4.15
2023-02-07T14:41:41.071Z,7.13
2023-02-07T14:44:20.469Z,5.10
2023-02-07T14:46:51.289Z,4.75
2023-02-07T14:49:23.168Z,5.07
2023-02-07T14:51:52.048Z,6.25
2023-02-07T14:54:33.252Z,7.35
2023-02-07T14:57:06.087Z,5.78
2023-02-07T14:59:32.832Z,6.25
2023-02-07T15:02:29.704Z,7.00
2023-02-07T15:04:57.045Z,6.22
2023-02-07T15:07:24.062Z,6.07
2023-02-07T15:09:50.735Z,8.63
2023-02-07T15:12:27.247Z,7.03
2023-02-07T15:14:59.226Z,5.85
2023-02-07T15:17:30.989Z,7.18
2023-02-07T15:20:06.596Z,7.53
2023-02-07T15:22:33.318Z,6.95
2023-02-07T15:25:01.323Z,8.55
2023-02-07T15:27:29.552Z,7.45
2023-02-07T15:30:01.858Z,6.70
2023-02-07T15:32:34.749Z,7.82
2023-02-07T15:35:21.516Z,7.93
2023-02-07T15:37:49.437Z,6.85
2023-02-07T15:40:18.997Z,7.45
2023-02-07T15:42:56.905Z,7.85
2023-02-07T15:45:29.484Z,8.13
2023-02-07T15:48:09.390Z,6.22
2023-02-07T15:50:37.973Z,7.20
2023-02-07T15:53:10.901Z,7.13
2023-02-07T15:55:46.637Z,6.65
2023-02-07T15:58:31.479Z,6.40
2023-02-07T16:01:04.358Z,7.18
2023-02-07T16:03:36.642Z,6.75
2023-02-07T16:06:20.680Z,6.95
2023-02-07T16:08:50.155Z,6.75
2023-02-07T16:11:25.827Z,8.27
2023-02-07T16:14:14.059Z,6.22
2023-02-07T16:17:21.203Z,6.32
2023-02-07T16:19:47.976Z,8.25
2023-02-07T16:22:19.426Z,6.00
2023-02-07T16:24:49.705Z,7.10
2023-02-07T16:27:31.695Z,8.05
2023-02-07T16:29:59.797Z,8.05
2023-02-07T16:32:31.628Z,8.07
2023-02-07T16:35:00.366Z,7.60
2023-02-07T16:37:28.252Z,9.95
2023-02-07T16:39:55.066Z,7.82
2023-02-07T16:42:21.837Z,7.55
2023-02-07T16:44:48.838Z,10.70
2023-02-07T16:47:17.259Z,10.80
2023-02-07T16:49:45.461Z,8.25
2023-02-07T16:52:12.168Z,8.05
2023-02-07T16:54:38.909Z,8.88
2023-02-07T16:57:05.984Z,9.20
2023-02-07T16:59:32.840Z,8.05
2023-02-07T17:01:59.656Z,8.93
2023-02-07T17:04:26.420Z,8.73
2023-02-07T17:06:53.122Z,10.07
2023-02-07T17:09:25.014Z,11.32
2023-02-07T17:11:53.375Z,10.10
2023-02-07T17:14:20.265Z,8.25
2023-02-07T17:16:47.149Z,8.50
2023-02-07T17:19:18.339Z,7.93
2023-02-07T17:21:46.227Z,8.40
2023-02-07T17:24:13.235Z,7.88
2023-02-07T17:26:43.766Z,9.52
2023-02-07T17:29:13.321Z,8.93
2023-02-07T17:31:40.816Z,10.48
2023-02-07T17:34:07.933Z,7.47
2023-02-07T17:36:35.077Z,8.20
2023-02-07T17:39:02.755Z,7.68
2023-02-07T17:41:30.448Z,8.27
2023-02-07T17:43:57.167Z,8.52
2023-02-07T17:46:26.417Z,8.57
2023-02-07T17:48:54.667Z,9.32
2023-02-07T17:51:24.134Z,9.18
2023-02-07T17:53:51.738Z,8.07
2023-02-07T17:56:29.758Z,8.38
2023-02-07T17:59:00.251Z,8.35
2023-02-07T18:01:26.939Z,8.13
2023-02-07T18:03:54.708Z,8.82
2023-02-07T18:06:24.236Z,9.07
2023-02-07T18:08:51.224Z,8.52
2023-02-07T18:11:18.718Z,9.05
2023-02-07T18:13:47.607Z,8.32
2023-02-07T18:16:16.991Z,7.90
2023-02-07T18:18:44.087Z,8.65
2023-02-07T18:21:13.431Z,8.10
2023-02-07T18:23:42.824Z,8.18
2023-02-07T18:26:19.100Z,11.18
2023-02-07T18:33:40.584Z,8.68
2023-02-07T18:36:08.138Z,8.82
2023-02-07T18:38:34.853Z,7.47
2023-02-07T18:41:06.843Z,8.02
2023-02-07T18:43:33.696Z,7.78
2023-02-07T18:46:00.673Z,8.82
2023-02-07T18:48:27.357Z,10.27
2023-02-07T18:50:54.023Z,8.57
2023-02-07T18:53:21.403Z,8.77
2023-02-07T18:55:48.136Z,8.10
2023-02-07T18:58:14.803Z,7.70
2023-02-07T19:00:43.230Z,7.55
2023-02-07T19:03:09.911Z,8.43
2023-02-07T19:05:36.662Z,8.15
2023-02-07T19:08:03.502Z,8.32
2023-02-07T19:10:30.194Z,8.27
2023-02-07T19:12:56.843Z,9.30
2023-02-07T19:15:23.641Z,8.82
2023-02-07T19:17:50.299Z,7.97
2023-02-07T19:20:17.149Z,7.97
2023-02-07T19:22:45.086Z,8.13
2023-02-07T19:25:13.109Z,8.40
2023-02-07T19:27:39.775Z,10.40
2023-02-07T19:30:07.933Z,9.48
2023-02-07T19:32:34.636Z,9.38
2023-02-07T19:35:01.319Z,8.63
2023-02-07T19:37:28.013Z,7.88
2023-02-07T19:39:56.171Z,9.00
2023-02-07T19:42:24.591Z,10.10
2023-02-07T19:44:51.441Z,9.43
2023-02-07T19:47:19.105Z,9.40
2023-02-07T19:49:51.520Z,9.27
2023-02-07T19:52:23.657Z,9.20
2023-02-07T19:54:50.467Z,9.70
2023-02-07T19:57:17.293Z,8.80
2023-02-07T19:59:48.194Z,9.77
2023-02-07T20:02:14.931Z,10.18
2023-02-07T20:04:41.687Z,9.85
2023-02-07T20:07:08.386Z,10.18
2023-02-07T20:09:35.221Z,8.75
2023-02-07T20:12:01.982Z,10.73
2023-02-07T20:14:29.192Z,8.85
2023-02-07T20:16:55.881Z,9.70
2023-02-07T20:19:22.592Z,9.27
2023-02-07T20:21:49.262Z,9.70
2023-02-07T20:24:15.939Z,9.68
2023-02-07T20:26:44.154Z,8.80
2023-02-07T20:29:16.285Z,9.70
2023-02-07T20:31:44.171Z,8.65
2023-02-07T20:34:11.473Z,9.60
2023-02-07T20:36:41.307Z,11.02
2023-02-07T20:39:15.072Z,9.85
2023-02-07T20:41:43.198Z,8.68
2023-02-07T20:44:16.434Z,9.98
2023-02-07T20:46:46.255Z,10.25
2023-02-07T20:49:16.611Z,9.38
2023-02-07T20:51:44.480Z,9.35
2023-02-07T20:54:12.595Z,8.13
2023-02-07T20:56:39.274Z,9.05
2023-02-07T20:59:07.228Z,8.57
2023-02-07T21:01:35.447Z,9.18
2023-02-07T21:04:05.240Z,9.90
2023-02-07T21:06:33.195Z,8.93
2023-02-07T21:09:02.198Z,9.38
2023-02-07T21:11:35.337Z,10.13
2023-02-07T21:14:03.871Z,8.73
2023-02-07T21:16:31.080Z,9.85
2023-02-07T21:18:58.178Z,9.30
2023-02-07T21:21:24.997Z,9.32
2023-02-07T21:23:51.804Z,8.13
2023-02-07T21:26:20.298Z,9.18
2023-02-07T21:28:47.236Z,8.02
2023-02-07T21:31:19.735Z,9.68
2023-02-07T21:33:49.513Z,9.27
2023-02-07T21:36:19.196Z,8.90
2023-02-07T21:38:48.625Z,9.32
2023-02-07T21:41:17.471Z,10.38
2023-02-07T21:43:44.194Z,8.65
2023-02-07T21:46:18.070Z,8.95
2023-02-07T21:48:46.604Z,10.32
2023-02-07T21:51:17.669Z,9.27
2023-02-07T21:53:45.186Z,8.82
2023-02-07T21:56:18.735Z,9.45
2023-02-07T21:58:45.946Z,7.95
2023-02-07T22:01:17.896Z,9.77
2023-02-07T22:03:46.734Z,8.35
2023-02-07T22:06:15.227Z,8.90
2023-02-07T22:08:47.624Z,9.73
2023-02-07T22:11:14.617Z,8.77
2023-02-07T22:13:43.239Z,9.20
2023-02-07T22:16:11.451Z,9.75
2023-02-07T22:18:38.169Z,8.43
2023-02-07T22:21:22.619Z,8.70
2023-02-07T22:23:49.893Z,9.85
2023-02-07T22:26:17.940Z,10.43
2023-02-07T22:28:45.026Z,8.75
2023-02-07T22:31:17.186Z,10.60
2023-02-07T22:33:43.954Z,8.55
2023-02-07T22:36:24.574Z,9.85
2023-02-07T22:38:51.429Z,10.05
2023-02-07T22:41:18.735Z,10.75
2023-02-07T22:43:45.787Z,8.70
2023-02-07T22:46:16.183Z,9.07
2023-02-07T22:48:43.493Z,9.50
2023-02-07T22:51:17.940Z,9.57
2023-02-07T22:53:44.655Z,9.32
2023-02-07T22:56:11.849Z,10.68
2023-02-07T22:58:40.382Z,10.40
2023-02-07T23:01:07.854Z,9.15
2023-02-07T23:03:34.785Z,10.00
2023-02-07T23:06:05.521Z,9.68
2023-02-07T23:08:32.276Z,8.57
2023-02-07T23:10:58.998Z,8.73
2023-02-07T23:13:26.039Z,10.02
2023-02-07T23:15:53.853Z,9.18
2023-02-07T23:18:20.659Z,9.07
2023-02-07T23:20:47.513Z,9.05
2023-02-07T23:23:14.197Z,9.07
2023-02-07T23:25:45.365Z,10.27
2023-02-07T23:28:13.416Z,9.60
2023-02-07T23:30:41.689Z,10.63
2023-02-07T23:33:09.952Z,8.25
2023-02-07T23:35:37.156Z,8.60
2023-02-07T23:38:04.310Z,10.63
2023-02-07T23:40:31.339Z,10.05
2023-02-07T23:42:58.063Z,9.68
2023-02-07T23:45:25.111Z,11.93
2023-02-07T23:47:51.819Z,9.88
2023-02-07T23:50:18.704Z,9.80
2023-02-07T23:52:45.713Z,10.65
2023-02-07T23:55:12.494Z,10.48
2023-02-07T23:57:39.213Z,8.32
